METAR Data
IDs: Format: Raw Decoded Include TAF

Data at: 1714 UTC 03 Jul 2020

METAR for:KLUK (Cincinnati/Lunken Ar, OH, US)
Text:KLUK 031653Z 00000KT 10SM SCT060 BKN080 32/17 A3002 RMK AO2 SLP162 T03170172
Temperature: 31.7°C ( 89°F)
Dewpoint: 17.2°C ( 63°F) [RH = 42%]
Pressure (altimeter):30.02 inches Hg (1016.7 mb) [Sea level pressure: 1016.2 mb]
Winds:calm
Visibility:10 or more sm (16+ km)
Ceiling:8000 feet AGL
Clouds: scattered clouds at 6000 feet AGL, broken clouds at 8000 feet AGL